Time;durP1;ratioP1;P1;durP2;ratioP2;P2;SDS_P1;SDS_P2;PMS_P1;PMS_P2;Temp;Humidity;BMP_temperature;BMP_pressure;BME280_temperature;BME280_humidity;BME280_pressure;Samples;Min_cycle;Max_cycle;Signal;HPM_P1;HPM_P2
2021/03/04 00:00:18;;;;;;;56.13;25.02;;;8.30;73.80;;;;;;5033506;28;20480;-79
2021/03/04 00:02:44;;;;;;;48.70;22.60;;;8.30;74.00;;;;;;5015795;28;20029;-80
2021/03/04 00:05:12;;;;;;;48.03;22.33;;;8.30;73.70;;;;;;5033423;28;20025;-80
2021/03/04 00:07:39;;;;;;;52.25;24.38;;;8.30;73.80;;;;;;5033679;28;20390;-80
2021/03/04 00:10:08;;;;;;;52.22;24.95;;;8.30;73.70;;;;;;5033655;28;20029;-80
2021/03/04 00:12:33;;;;;;;51.45;23.30;;;8.30;73.50;;;;;;5015964;28;20025;-80
2021/03/04 00:14:59;;;;;;;46.58;22.33;;;8.30;73.50;;;;;;5033442;28;20034;-80
2021/03/04 00:17:25;;;;;;;48.80;23.30;;;8.40;73.70;;;;;;5033422;28;20399;-80
2021/03/04 00:19:50;;;;;;;51.05;23.38;;;8.30;73.70;;;;;;5015647;28;20395;-80
2021/03/04 00:22:16;;;;;;;57.28;25.50;;;8.30;73.80;;;;;;5033469;28;20057;-80
2021/03/04 00:24:42;;;;;;;51.97;24.00;;;8.30;73.70;;;;;;5031980;28;20458;-80
2021/03/04 00:27:07;;;;;;;54.20;23.23;;;8.30;73.80;;;;;;5033266;28;20418;-80
2021/03/04 00:29:33;;;;;;;57.50;26.17;;;8.30;74.10;;;;;;5036290;28;20048;-80
2021/03/04 00:31:59;;;;;;;48.67;23.88;;;8.20;74.20;;;;;;5032952;28;20426;-80
2021/03/04 00:34:25;;;;;;;48.65;25.33;;;8.20;74.30;;;;;;5033244;28;20036;-80
2021/03/04 00:36:50;;;;;;;54.22;24.30;;;8.20;74.60;;;;;;5015614;28;20527;-80
2021/03/04 00:39:16;;;;;;;48.65;22.52;;;8.20;74.60;;;;;;5015520;28;20022;-80
2021/03/04 00:41:42;;;;;;;48.63;22.80;;;8.20;74.60;;;;;;5033155;28;20029;-80
2021/03/04 00:44:08;;;;;;;53.85;23.98;;;8.20;74.70;;;;;;5033244;28;20479;-80
2021/03/04 00:46:35;;;;;;;50.30;24.83;;;8.20;74.70;;;;;;5033177;28;20021;-80
2021/03/04 00:49:01;;;;;;;50.70;22.35;;;8.20;74.90;;;;;;5019059;28;20053;-80
2021/03/04 00:51:28;;;;;;;49.22;24.08;;;8.20;74.60;;;;;;5032940;28;20449;-80
2021/03/04 00:53:54;;;;;;;54.00;24.05;;;8.20;74.50;;;;;;5033019;28;20040;-80
2021/03/04 00:56:19;;;;;;;48.95;22.17;;;8.20;74.60;;;;;;5032683;28;20021;-80
2021/03/04 00:58:45;;;;;;;54.03;23.67;;;8.20;74.60;;;;;;5033073;28;20029;-80
2021/03/04 01:01:11;;;;;;;47.17;22.30;;;8.20;74.80;;;;;;5032825;28;20446;-80
2021/03/04 01:03:37;;;;;;;47.40;22.48;;;8.10;75.10;;;;;;5032356;28;20025;-80
2021/03/04 01:06:03;;;;;;;56.80;25.45;;;8.10;75.20;;;;;;5031680;28;20546;-80
2021/03/04 01:08:28;;;;;;;48.58;24.08;;;8.10;75.50;;;;;;5032868;28;20113;-80
2021/03/04 01:10:54;;;;;;;47.38;24.92;;;8.00;75.40;;;;;;5031576;28;20112;-80
2021/03/04 01:13:20;;;;;;;44.53;22.48;;;8.00;75.70;;;;;;5032559;28;20071;-80
2021/03/04 01:15:46;;;;;;;51.60;23.27;;;8.10;75.60;;;;;;5015130;28;20434;-80
2021/03/04 01:18:12;;;;;;;52.35;24.23;;;8.10;75.50;;;;;;5031920;28;20025;-80
2021/03/04 01:20:38;;;;;;;52.63;24.15;;;8.10;75.50;;;;;;5032093;28;20112;-80
2021/03/04 01:23:03;;;;;;;52.70;23.67;;;8.00;75.50;;;;;;5032215;28;20451;-80
2021/03/04 01:25:29;;;;;;;53.33;23.10;;;8.00;75.80;;;;;;5014696;28;20087;-80
2021/03/04 01:27:55;;;;;;;60.28;24.88;;;8.00;76.10;;;;;;5032270;28;20032;-80
2021/03/04 01:30:26;;;;;;;59.40;26.25;;;8.00;76.10;;;;;;5032498;28;20021;-80
2021/03/04 01:32:52;;;;;;;53.95;24.75;;;7.90;76.10;;;;;;5014885;28;20404;-80
2021/03/04 01:35:18;;;;;;;49.15;23.83;;;7.90;76.20;;;;;;5032582;28;20068;-80
2021/03/04 01:37:44;;;;;;;55.78;25.60;;;8.00;76.20;;;;;;5032669;28;20041;-80
2021/03/04 01:40:13;;;;;;;58.92;25.77;;;8.00;76.20;;;;;;5032372;28;20061;-80
2021/03/04 01:42:39;;;;;;;54.78;24.88;;;7.90;76.10;;;;;;5014778;28;20029;-80
2021/03/04 01:45:06;;;;;;;51.72;24.27;;;8.00;76.20;;;;;;5032355;28;20423;-80
2021/03/04 01:47:34;;;;;;;52.78;24.20;;;7.90;76.20;;;;;;5014712;28;20029;-80
2021/03/04 01:50:00;;;;;;;51.63;24.10;;;8.00;76.40;;;;;;5032020;28;20053;-80
2021/03/04 01:52:26;;;;;;;50.85;24.50;;;7.90;76.50;;;;;;5032378;28;20021;-80
2021/03/04 01:54:53;;;;;;;50.55;24.27;;;7.90;76.40;;;;;;5032573;28;20029;-80
2021/03/04 01:57:19;;;;;;;52.50;23.45;;;7.90;77.10;;;;;;5032288;28;20030;-80
2021/03/04 01:59:45;;;;;;;48.60;22.85;;;7.90;76.40;;;;;;5014495;28;20033;-80
2021/03/04 02:02:11;;;;;;;59.65;25.00;;;7.90;76.40;;;;;;5032342;28;20486;-80
2021/03/04 02:04:37;;;;;;;52.75;25.80;;;7.90;76.50;;;;;;5032189;28;20474;-80
2021/03/04 02:07:11;;;;;;;58.20;24.88;;;7.90;76.30;;;;;;5032266;28;20053;-80
2021/03/04 02:09:40;;;;;;;58.42;24.50;;;7.90;76.40;;;;;;5014456;28;20072;-80
2021/03/04 02:12:14;;;;;;;54.10;25.75;;;7.90;76.30;;;;;;5032029;28;20029;-80
2021/03/04 02:14:58;;;;;;;54.03;23.80;;;7.90;76.70;;;;;;5034216;28;20471;-80
2021/03/04 02:17:29;;;;;;;50.83;24.25;;;7.80;76.60;;;;;;5035711;28;20034;-80
2021/03/04 02:19:57;;;;;;;48.65;23.15;;;7.90;76.60;;;;;;5035742;28;20090;-80
2021/03/04 02:22:29;;;;;;;54.90;24.02;;;7.80;76.70;;;;;;5035871;28;20025;-80
2021/03/04 02:25:15;;;;;;;55.38;25.48;;;7.80;77.00;;;;;;5035466;28;20064;-80
2021/03/04 02:27:42;;;;;;;55.08;25.33;;;7.80;76.70;;;;;;5035640;28;20032;-80
2021/03/04 02:30:13;;;;;;;57.83;25.65;;;7.80;76.80;;;;;;5017687;28;20045;-80
2021/03/04 02:32:44;;;;;;;55.78;26.13;;;7.80;77.00;;;;;;5023559;28;20026;-80
2021/03/04 02:35:12;;;;;;;58.30;25.98;;;7.80;77.20;;;;;;5035525;28;20083;-80
2021/03/04 02:37:42;;;;;;;53.88;26.02;;;7.80;76.80;;;;;;5037377;28;20025;-79
2021/03/04 02:40:10;;;;;;;57.20;26.08;;;7.80;77.60;;;;;;5054088;28;20390;-80
2021/03/04 02:42:39;;;;;;;53.50;25.40;;;7.80;77.00;;;;;;5049951;28;20056;-80
2021/03/04 02:45:07;;;;;;;57.58;26.88;;;7.80;77.00;;;;;;5034183;28;20557;-81
2021/03/04 02:47:34;;;;;;;54.65;24.40;;;7.80;77.10;;;;;;5035326;28;20104;-80
2021/03/04 02:50:01;;;;;;;56.53;24.77;;;7.80;76.90;;;;;;5035367;28;20105;-80
2021/03/04 02:52:27;;;;;;;60.30;25.75;;;7.80;76.80;;;;;;5034819;28;20442;-80
2021/03/04 02:54:53;;;;;;;58.22;26.23;;;7.80;76.60;;;;;;5018373;28;20040;-80
2021/03/04 02:57:21;;;;;;;63.35;27.65;;;7.80;76.80;;;;;;5017433;28;20398;-80
2021/03/04 02:59:49;;;;;;;53.20;24.10;;;7.80;77.00;;;;;;5035028;28;20032;-80
2021/03/04 03:02:16;;;;;;;49.78;24.75;;;7.80;77.00;;;;;;5017929;28;20033;-80
2021/03/04 03:04:43;;;;;;;55.63;25.52;;;7.80;77.00;;;;;;5034688;28;20033;-80
2021/03/04 03:07:10;;;;;;;53.40;25.30;;;7.80;77.00;;;;;;5034951;28;20499;-80
2021/03/04 03:09:38;;;;;;;58.30;24.42;;;7.80;77.40;;;;;;5017078;28;20091;-80
2021/03/04 03:12:05;;;;;;;50.00;24.10;;;7.80;76.60;;;;;;5034778;28;20021;-80
2021/03/04 03:14:30;;;;;;;58.35;26.77;;;7.80;76.70;;;;;;5034836;28;20026;-80
2021/03/04 03:16:58;;;;;;;54.15;24.85;;;7.80;76.80;;;;;;5034309;28;20029;-80
2021/03/04 03:19:25;;;;;;;59.67;26.45;;;7.80;77.00;;;;;;5034661;28;20549;-81
2021/03/04 03:21:50;;;;;;;53.80;24.55;;;7.80;77.10;;;;;;5034591;28;20032;-80
2021/03/04 03:24:16;;;;;;;56.92;25.65;;;7.70;77.20;;;;;;5034316;28;20037;-80
2021/03/04 03:26:42;;;;;;;55.30;26.50;;;7.70;77.50;;;;;;5034478;28;20487;-80
2021/03/04 03:29:07;;;;;;;56.50;25.20;;;7.70;77.50;;;;;;5034415;28;20119;-79
2021/03/04 03:31:35;;;;;;;55.15;24.45;;;7.70;77.60;;;;;;5034489;28;20057;-80
2021/03/04 03:34:03;;;;;;;55.45;24.83;;;7.70;77.80;;;;;;5016548;28;20075;-80
2021/03/04 03:36:29;;;;;;;60.60;26.63;;;7.70;78.50;;;;;;5034459;28;20049;-80
2021/03/04 03:38:56;;;;;;;52.72;25.27;;;7.70;77.70;;;;;;5034403;28;20024;-80
2021/03/04 03:41:24;;;;;;;60.47;25.58;;;7.70;78.00;;;;;;5034328;28;20056;-80
2021/03/04 03:43:50;;;;;;;52.17;25.35;;;7.70;77.80;;;;;;5016170;28;20036;-80
2021/03/04 03:46:17;;;;;;;60.38;26.10;;;7.70;78.00;;;;;;5016384;28;20463;-80
2021/03/04 03:48:45;;;;;;;53.55;25.90;;;7.70;78.20;;;;;;5016286;28;20032;-80
2021/03/04 03:51:10;;;;;;;54.35;25.30;;;7.70;78.20;;;;;;5034205;28;20108;-80
2021/03/04 03:53:36;;;;;;;57.60;26.27;;;7.60;78.10;;;;;;5034089;28;20068;-80
2021/03/04 03:56:03;;;;;;;56.47;27.13;;;7.60;78.00;;;;;;5033994;28;20021;-80
2021/03/04 03:58:29;;;;;;;56.55;26.27;;;7.70;78.10;;;;;;5033878;28;20025;-80
2021/03/04 04:00:56;;;;;;;55.78;25.55;;;7.60;78.00;;;;;;5033983;28;20471;-80
2021/03/04 04:03:25;;;;;;;59.42;25.83;;;7.70;78.00;;;;;;5033873;28;20021;-80
2021/03/04 04:05:51;;;;;;;56.65;25.98;;;7.60;78.00;;;;;;5016108;28;20026;-80
2021/03/04 04:08:23;;;;;;;59.42;26.17;;;7.60;78.20;;;;;;5033804;28;20661;-80
2021/03/04 04:10:49;;;;;;;57.22;26.48;;;7.60;78.30;;;;;;5033425;28;20029;-80
2021/03/04 04:13:15;;;;;;;58.50;25.42;;;7.60;78.40;;;;;;5033402;28;20114;-80
2021/03/04 04:15:41;;;;;;;54.40;25.88;;;7.70;78.20;;;;;;5032919;28;20105;-80
2021/03/04 04:18:08;;;;;;;58.25;24.63;;;7.60;78.10;;;;;;5032508;28;20033;-80
2021/03/04 04:20:34;;;;;;;53.67;24.75;;;7.60;78.00;;;;;;5019403;28;20096;-79
2021/03/04 04:23:00;;;;;;;54.63;24.67;;;7.60;78.40;;;;;;5033290;28;20063;-80
2021/03/04 04:25:26;;;;;;;50.10;23.73;;;7.50;78.60;;;;;;5031873;28;20029;-80
2021/03/04 04:27:53;;;;;;;52.58;24.10;;;7.50;78.90;;;;;;5032693;28;20017;-80
2021/03/04 04:30:20;;;;;;;54.38;24.27;;;7.50;79.20;;;;;;5031878;28;20391;-80
2021/03/04 04:32:46;;;;;;;57.65;25.35;;;7.50;79.10;;;;;;5033057;28;20029;-80
2021/03/04 04:35:13;;;;;;;50.25;23.30;;;7.40;78.90;;;;;;5034746;28;20029;-80
2021/03/04 04:37:39;;;;;;;54.17;26.33;;;7.40;79.10;;;;;;5032133;28;20033;-80
2021/03/04 04:40:06;;;;;;;56.03;24.40;;;7.40;79.20;;;;;;5031651;28;20029;-80
2021/03/04 04:42:32;;;;;;;51.58;24.70;;;7.40;79.20;;;;;;5031345;28;20386;-80
2021/03/04 04:44:58;;;;;;;47.92;23.42;;;7.40;79.50;;;;;;5014563;28;20120;-80
2021/03/04 04:47:24;;;;;;;49.20;24.05;;;7.40;79.30;;;;;;5031972;28;20022;-80
2021/03/04 04:49:49;;;;;;;52.35;23.73;;;7.40;79.10;;;;;;5032575;28;20042;-80
2021/03/04 04:52:15;;;;;;;50.20;22.52;;;7.40;79.00;;;;;;5032943;28;20391;-80
2021/03/04 04:54:41;;;;;;;48.47;22.40;;;7.40;79.10;;;;;;5033113;28;20025;-80
2021/03/04 04:57:07;;;;;;;52.97;23.25;;;7.40;79.10;;;;;;5032961;28;20018;-80
2021/03/04 04:59:33;;;;;;;50.75;23.13;;;7.40;79.30;;;;;;5032563;28;20021;-80
2021/03/04 05:01:58;;;;;;;55.53;23.73;;;7.40;79.30;;;;;;5033026;28;20105;-81
2021/03/04 05:04:24;;;;;;;44.97;23.42;;;7.30;79.60;;;;;;5015171;28;20649;-80
2021/03/04 05:06:50;;;;;;;53.92;25.33;;;7.30;79.60;;;;;;5025715;28;20028;-81
2021/03/04 05:09:16;;;;;;;52.03;24.27;;;7.30;79.40;;;;;;5031525;28;20022;-80
2021/03/04 05:11:41;;;;;;;49.78;21.83;;;7.30;79.30;;;;;;5019712;28;20029;-80
2021/03/04 05:14:07;;;;;;;53.13;22.80;;;7.30;79.20;;;;;;5032814;28;20014;-80
2021/03/04 05:16:32;;;;;;;49.97;24.65;;;7.30;79.40;;;;;;5032373;28;20034;-81
2021/03/04 05:18:58;;;;;;;48.58;22.65;;;7.30;79.60;;;;;;5032606;28;20057;-80
2021/03/04 05:21:24;;;;;;;47.30;23.35;;;7.20;79.80;;;;;;5014927;28;20025;-80
2021/03/04 05:23:49;;;;;;;50.90;24.10;;;7.20;79.90;;;;;;5032661;28;20108;-80
2021/03/04 05:26:15;;;;;;;48.63;22.30;;;7.20;79.80;;;;;;5032746;28;20032;-80
2021/03/04 05:28:41;;;;;;;50.75;24.08;;;7.20;79.80;;;;;;5014801;28;20048;-81
2021/03/04 05:31:06;;;;;;;51.70;23.50;;;7.20;80.00;;;;;;5032597;28;20573;-80
2021/03/04 05:33:32;;;;;;;59.55;24.30;;;7.20;80.10;;;;;;5032564;28;20022;-80
2021/03/04 05:35:58;;;;;;;51.20;23.83;;;7.20;80.00;;;;;;5032597;28;20152;-80
2021/03/04 05:38:23;;;;;;;49.58;23.02;;;7.20;79.80;;;;;;5014805;28;20414;-80
2021/03/04 05:40:49;;;;;;;46.80;23.20;;;7.20;79.40;;;;;;5014909;28;20531;-80
2021/03/04 05:43:16;;;;;;;56.45;24.08;;;7.20;79.20;;;;;;5014722;28;20025;-80
2021/03/04 05:45:41;;;;;;;51.63;24.02;;;7.20;79.30;;;;;;5032403;28;20022;-80
2021/03/04 05:48:11;;;;;;;53.53;24.58;;;7.10;79.30;;;;;;5032538;28;20076;-80
2021/03/04 05:50:47;;;;;;;47.95;22.65;;;7.10;79.70;;;;;;5036088;28;20021;-80
2021/03/04 05:53:19;;;;;;;50.78;23.92;;;7.10;79.70;;;;;;5035914;28;20036;-80
2021/03/04 05:55:45;;;;;;;50.53;24.77;;;7.10;79.70;;;;;;5025764;28;20095;-81
2021/03/04 05:58:12;;;;;;;52.67;23.92;;;7.20;79.60;;;;;;5036137;28;20433;-80
2021/03/04 06:00:42;;;;;;;49.40;23.02;;;7.20;79.50;;;;;;5035882;28;20037;-80
2021/03/04 06:03:08;;;;;;;47.33;22.80;;;7.20;79.40;;;;;;5036267;28;20099;-80
2021/03/04 06:05:34;;;;;;;56.45;25.80;;;7.20;79.50;;;;;;5018286;28;20471;-80
2021/03/04 06:08:05;;;;;;;52.05;24.75;;;7.20;79.40;;;;;;5018390;28;20379;-80
2021/03/04 06:10:31;;;;;;;58.92;25.35;;;7.20;79.30;;;;;;5017972;28;20021;-80
2021/03/04 06:12:57;;;;;;;55.00;25.17;;;7.30;79.20;;;;;;5035769;28;20010;-81
2021/03/04 06:15:24;;;;;;;54.90;25.48;;;7.20;79.30;;;;;;5035862;28;20025;-81
2021/03/04 06:17:57;;;;;;;53.35;24.38;;;7.30;79.30;;;;;;5035243;28;20079;-81
2021/03/04 06:20:34;;;;;;;49.92;24.38;;;7.30;79.10;;;;;;5035673;28;20021;-80
2021/03/04 06:23:00;;;;;;;53.75;25.27;;;7.40;79.20;;;;;;5035695;28;20040;-77
2021/03/04 06:25:26;;;;;;;55.55;25.10;;;7.50;79.50;;;;;;5035409;28;20045;-77
2021/03/04 06:27:51;;;;;;;50.70;24.80;;;7.40;79.80;;;;;;5035244;28;20456;-76
2021/03/04 06:30:18;;;;;;;53.88;25.40;;;7.40;80.50;;;;;;5034720;28;20037;-77
2021/03/04 06:32:54;;;;;;;57.33;27.02;;;7.40;80.90;;;;;;5020057;28;20083;-77
2021/03/04 06:35:21;;;;;;;62.42;27.98;;;7.30;81.70;;;;;;5035180;28;20391;-77
2021/03/04 06:37:47;;;;;;;68.90;30.55;;;7.30;82.20;;;;;;5034214;28;20026;-76
2021/03/04 06:40:32;;;;;;;64.35;30.60;;;7.30;82.90;;;;;;5036565;28;20495;-77
2021/03/04 06:42:59;;;;;;;68.35;31.70;;;7.30;83.40;;;;;;5015811;28;20033;-77
2021/03/04 06:45:35;;;;;;;80.78;35.67;;;7.30;83.60;;;;;;5014249;28;20040;-77
2021/03/04 06:48:16;;;;;;;77.68;36.92;;;7.40;84.60;;;;;;5015721;28;20022;-78
2021/03/04 06:50:48;;;;;;;71.55;33.35;;;7.30;85.40;;;;;;5027696;28;20018;-77
2021/03/04 06:53:18;;;;;;;71.45;33.55;;;7.40;85.90;;;;;;5032325;28;20022;-77
2021/03/04 06:55:50;;;;;;;66.45;30.52;;;7.40;85.30;;;;;;5035088;28;20026;-76
2021/03/04 06:58:39;;;;;;;71.68;29.92;;;7.50;84.00;;;;;;5035178;28;20022;-77
2021/03/04 07:01:05;;;;;;;61.60;28.55;;;7.60;82.20;;;;;;5028253;28;20108;-77
2021/03/04 07:03:41;;;;;;;63.60;28.40;;;7.80;81.80;;;;;;5016365;28;20029;-77
2021/03/04 07:06:10;;;;;;;61.13;28.27;;;7.80;82.20;;;;;;5032584;28;20175;-77
2021/03/04 07:08:41;;;;;;;66.45;30.50;;;7.90;82.10;;;;;;5021766;28;20034;-77
2021/03/04 07:11:12;;;;;;;66.15;29.98;;;8.00;83.00;;;;;;5034739;28;20029;-77
2021/03/04 07:13:39;;;;;;;61.40;30.67;;;8.00;82.50;;;;;;5034764;28;20369;-76
2021/03/04 07:16:15;;;;;;;72.35;32.92;;;8.00;82.30;;;;;;5034383;28;20025;-77
2021/03/04 07:18:45;;;;;;;71.60;33.15;;;8.10;83.00;;;;;;5034538;28;20028;-77
2021/03/04 07:21:13;;;;;;;72.70;33.25;;;8.10;82.80;;;;;;5034762;28;20029;-77
2021/03/04 07:23:41;;;;;;;68.75;33.30;;;8.10;83.10;;;;;;5034661;28;20026;-77
2021/03/04 07:26:08;;;;;;;74.45;35.25;;;8.20;82.50;;;;;;5020353;28;20037;-76
2021/03/04 07:28:38;;;;;;;70.88;34.83;;;8.20;82.60;;;;;;5025046;28;20103;-77
2021/03/04 07:31:05;;;;;;;78.80;36.40;;;8.20;83.10;;;;;;5016513;28;20036;-77
2021/03/04 07:33:34;;;;;;;82.05;36.63;;;8.30;82.90;;;;;;5034524;28;20109;-77
2021/03/04 07:36:02;;;;;;;89.78;39.25;;;8.30;82.60;;;;;;5034472;28;20553;-77
2021/03/04 07:38:31;;;;;;;89.32;38.92;;;8.30;83.60;;;;;;5034473;28;20072;-77
2021/03/04 07:41:00;;;;;;;77.03;38.63;;;8.30;84.00;;;;;;5034352;28;20105;-77
2021/03/04 07:43:26;;;;;;;95.45;42.55;;;8.40;84.40;;;;;;5016471;28;20036;-77
2021/03/04 07:45:51;;;;;;;91.45;43.35;;;8.50;85.10;;;;;;5034082;28;20033;-77
2021/03/04 07:48:18;;;;;;;84.07;43.22;;;8.50;85.20;;;;;;5034017;28;20052;-77
2021/03/04 07:50:55;;;;;;;87.32;41.88;;;8.50;84.70;;;;;;5016537;28;20030;-77
2021/03/04 07:53:22;;;;;;;90.18;43.10;;;8.60;84.30;;;;;;5033617;28;20088;-77
2021/03/04 07:55:47;;;;;;;88.38;41.05;;;8.60;84.30;;;;;;5016275;28;20029;-77
2021/03/04 07:58:14;;;;;;;87.43;40.83;;;8.60;84.50;;;;;;5033596;28;20387;-76
2021/03/04 08:00:44;;;;;;;88.85;41.50;;;8.70;84.90;;;;;;5026520;28;20029;-80
2021/03/04 08:03:10;;;;;;;81.03;40.53;;;8.70;85.30;;;;;;5033492;28;20032;-80
2021/03/04 08:05:37;;;;;;;94.60;42.17;;;8.70;83.60;;;;;;5038073;28;20387;-80
2021/03/04 08:08:15;;;;;;;87.18;40.17;;;8.70;82.90;;;;;;5025345;28;20061;-79
2021/03/04 08:10:53;;;;;;;89.75;41.72;;;8.60;83.10;;;;;;5033247;28;20036;-81
2021/03/04 08:13:32;;;;;;;88.43;42.88;;;8.70;84.10;;;;;;5029843;28;20121;-81
2021/03/04 08:15:58;;;;;;;90.72;42.92;;;8.70;84.10;;;;;;5033562;28;20555;-81
2021/03/04 08:18:26;;;;;;;90.75;42.70;;;8.70;84.20;;;;;;5033207;28;20104;-81
2021/03/04 08:20:53;;;;;;;84.60;41.20;;;8.70;83.90;;;;;;5033697;28;20438;-81
2021/03/04 08:23:20;;;;;;;89.15;42.25;;;8.70;84.40;;;;;;5033289;28;20475;-81
2021/03/04 08:25:46;;;;;;;83.63;40.75;;;8.80;83.10;;;;;;5028710;28;20052;-81
2021/03/04 08:28:41;;;;;;;88.18;41.25;;;8.80;83.00;;;;;;5033620;28;20049;-81
2021/03/04 08:31:07;;;;;;;90.57;40.80;;;8.90;83.70;;;;;;5011730;28;20076;-81
2021/03/04 08:33:33;;;;;;;90.65;42.83;;;8.90;83.80;;;;;;5028875;28;20471;-81
2021/03/04 08:36:01;;;;;;;91.30;42.28;;;9.00;85.00;;;;;;5004253;28;20111;-81
2021/03/04 08:38:27;;;;;;;90.88;43.15;;;9.00;85.20;;;;;;5021974;28;20033;-81
2021/03/04 08:40:55;;;;;;;94.22;44.88;;;9.10;84.70;;;;;;5031023;28;20183;-80
2021/03/04 08:43:26;;;;;;;97.72;46.85;;;9.10;84.90;;;;;;5019784;28;20115;-81
2021/03/04 08:45:54;;;;;;;89.47;44.97;;;9.20;85.30;;;;;;5029821;28;20552;-81
2021/03/04 08:48:20;;;;;;;101.60;46.67;;;9.20;85.40;;;;;;5020027;28;20144;-80
2021/03/04 08:50:48;;;;;;;86.50;42.35;;;9.20;85.80;;;;;;5020624;28;20025;-79
2021/03/04 08:53:19;;;;;;;91.30;44.08;;;9.30;84.70;;;;;;5022474;28;20030;-81
2021/03/04 08:55:47;;;;;;;94.22;42.85;;;9.40;85.10;;;;;;5012385;28;20637;-80
2021/03/04 08:58:17;;;;;;;90.10;43.33;;;9.50;84.70;;;;;;4994073;28;20061;-82
2021/03/04 09:00:59;;;;;;;90.50;42.20;;;9.50;83.40;;;;;;5005376;28;20083;-79
2021/03/04 09:03:27;;;;;;;79.28;41.03;;;9.70;82.80;;;;;;5029150;28;20498;-79
2021/03/04 09:06:09;;;;;;;79.25;39.60;;;9.80;83.00;;;;;;5012405;28;20322;-81
2021/03/04 09:08:44;;;;;;;80.22;39.78;;;9.80;81.50;;;;;;5026126;28;20017;-80
2021/03/04 09:11:28;;;;;;;82.20;40.00;;;10.00;82.90;;;;;;5019593;28;20717;-77
2021/03/04 09:14:11;;;;;;;88.15;40.55;;;10.10;82.40;;;;;;5018660;28;20018;-79
2021/03/04 09:16:41;;;;;;;86.95;41.97;;;10.10;82.30;;;;;;5023123;28;20018;-78
2021/03/04 09:19:07;;;;;;;86.97;42.30;;;10.20;82.10;;;;;;5000371;28;20025;-78
2021/03/04 09:21:33;;;;;;;85.40;41.58;;;10.30;82.30;;;;;;5023512;28;20082;-79
2021/03/04 09:23:59;;;;;;;88.40;42.83;;;10.30;80.90;;;;;;5018673;28;20504;-78
2021/03/04 09:26:35;;;;;;;89.90;45.15;;;10.30;81.70;;;;;;5022030;28;20616;-80
2021/03/04 09:29:05;;;;;;;92.55;44.35;;;10.30;82.10;;;;;;5015467;28;20049;-79
2021/03/04 09:31:33;;;;;;;89.40;43.28;;;10.30;82.30;;;;;;5014959;28;20064;-80
2021/03/04 09:34:03;;;;;;;83.95;41.60;;;10.30;82.50;;;;;;5034217;28;20067;-78
2021/03/04 09:36:29;;;;;;;90.80;43.20;;;10.40;82.60;;;;;;5034248;28;20320;-78
2021/03/04 09:38:56;;;;;;;90.63;43.42;;;10.40;82.30;;;;;;5033401;28;20207;-77
2021/03/04 09:41:24;;;;;;;87.22;41.33;;;10.50;81.80;;;;;;5034126;28;20013;-78
2021/03/04 09:43:56;;;;;;;91.10;42.65;;;10.60;81.60;;;;;;5016679;28;20048;-79
2021/03/04 09:46:33;;;;;;;96.57;45.08;;;10.70;80.80;;;;;;5027523;28;20141;-77
2021/03/04 09:49:12;;;;;;;90.10;42.20;;;10.70;79.40;;;;;;5013509;28;20386;-81
2021/03/04 09:51:40;;;;;;;88.53;42.08;;;10.80;81.40;;;;;;5013459;28;20491;-81
2021/03/04 09:54:07;;;;;;;89.03;42.13;;;10.80;79.60;;;;;;4996237;28;20030;-81
2021/03/04 09:56:33;;;;;;;91.20;44.50;;;10.90;81.00;;;;;;5025910;28;20033;-79
2021/03/04 09:58:59;;;;;;;83.75;41.75;;;10.90;80.60;;;;;;5033409;28;20620;-79
2021/03/04 10:01:34;;;;;;;89.63;43.55;;;10.90;80.60;;;;;;5032441;28;20030;-81
2021/03/04 10:04:02;;;;;;;86.95;43.33;;;11.00;79.10;;;;;;5032759;28;20451;-81
2021/03/04 10:06:38;;;;;;;81.60;40.63;;;11.00;79.00;;;;;;5033885;28;20648;-79
2021/03/04 10:09:05;;;;;;;90.82;43.42;;;11.00;78.50;;;;;;5033573;28;20556;-81
2021/03/04 10:11:33;;;;;;;96.07;43.65;;;11.00;76.70;;;;;;5032198;28;20112;-80
2021/03/04 10:14:12;;;;;;;90.78;42.30;;;11.00;77.10;;;;;;5033638;28;20048;-80
2021/03/04 10:16:39;;;;;;;92.75;43.13;;;11.10;78.90;;;;;;5021325;28;20101;-81
2021/03/04 10:19:06;;;;;;;90.90;43.30;;;11.20;79.10;;;;;;5033322;28;20729;-79
2021/03/04 10:21:32;;;;;;;92.88;42.92;;;11.20;78.10;;;;;;5015882;28;20034;-80
2021/03/04 10:23:58;;;;;;;82.57;43.38;;;11.30;77.90;;;;;;5016198;28;20021;-78
2021/03/04 10:26:24;;;;;;;83.32;40.13;;;11.30;76.80;;;;;;5033196;28;20025;-80
2021/03/04 10:28:50;;;;;;;96.68;44.00;;;11.40;74.10;;;;;;5033537;28;20055;-79
2021/03/04 10:31:16;;;;;;;84.72;43.67;;;11.40;77.90;;;;;;5015851;28;20018;-77
2021/03/04 10:33:45;;;;;;;92.82;46.63;;;11.50;76.80;;;;;;5033053;28;20034;-79
2021/03/04 10:36:11;;;;;;;95.20;45.03;;;11.50;77.90;;;;;;5032617;28;20025;-80
2021/03/04 10:38:36;;;;;;;88.88;43.67;;;11.50;76.90;;;;;;5004645;28;20080;-79
2021/03/04 10:41:02;;;;;;;90.82;44.60;;;11.60;76.80;;;;;;5013214;28;20100;-78
2021/03/04 10:43:28;;;;;;;90.68;44.58;;;11.60;77.80;;;;;;5013697;28;20026;-79
2021/03/04 10:45:54;;;;;;;82.30;43.72;;;11.70;77.70;;;;;;5013027;28;20024;-79
2021/03/04 10:48:21;;;;;;;85.10;42.55;;;11.70;77.80;;;;;;5013442;28;20029;-84
2021/03/04 10:50:47;;;;;;;90.47;45.08;;;11.80;77.60;;;;;;5013185;28;20032;-78
2021/03/04 10:53:13;;;;;;;86.90;45.15;;;11.80;77.00;;;;;;5012878;28;20108;-79
2021/03/04 10:55:39;;;;;;;92.43;42.55;;;11.90;77.50;;;;;;5053226;28;20096;-79
2021/03/04 10:58:13;;;;;;;84.22;41.85;;;11.80;76.00;;;;;;5052595;28;20021;-78
2021/03/04 11:00:41;;;;;;;87.20;42.47;;;11.90;74.50;;;;;;5052439;28;20039;-78
2021/03/04 11:03:06;;;;;;;83.03;42.78;;;11.90;74.40;;;;;;5039544;28;20029;-78
2021/03/04 11:05:32;;;;;;;81.35;41.35;;;12.00;74.90;;;;;;5031993;28;20071;-78
2021/03/04 11:07:58;;;;;;;87.03;41.88;;;12.00;74.60;;;;;;5014164;28;20038;-79
2021/03/04 11:10:24;;;;;;;82.15;40.35;;;12.10;74.30;;;;;;5032839;28;20068;-78
2021/03/04 11:12:50;;;;;;;90.35;42.35;;;12.00;73.50;;;;;;5014508;28;20037;-78
2021/03/04 11:15:16;;;;;;;84.57;42.53;;;12.10;73.60;;;;;;5041782;28;20386;-79
2021/03/04 11:17:42;;;;;;;92.05;43.03;;;12.10;73.80;;;;;;5034590;28;20031;-81
2021/03/04 11:20:09;;;;;;;90.93;42.38;;;12.10;73.60;;;;;;5050818;28;20490;-82
2021/03/04 11:22:34;;;;;;;87.40;41.97;;;12.10;73.80;;;;;;5034488;28;20080;-80
2021/03/04 11:25:01;;;;;;;94.40;43.90;;;12.10;72.90;;;;;;5035391;28;20057;-79
2021/03/04 11:27:27;;;;;;;84.15;40.92;;;12.00;73.10;;;;;;5031810;28;20025;-80
2021/03/04 11:29:52;;;;;;;90.47;40.25;;;12.10;73.10;;;;;;5014896;28;20056;-80
2021/03/04 11:32:18;;;;;;;86.65;41.50;;;12.10;73.80;;;;;;5035358;28;20096;-77
2021/03/04 11:34:43;;;;;;;83.65;42.40;;;12.20;73.00;;;;;;5014757;28;20113;-79
2021/03/04 11:37:10;;;;;;;84.72;40.35;;;12.20;72.60;;;;;;5031957;28;20104;-80
2021/03/04 11:39:36;;;;;;;83.43;38.67;;;12.30;72.60;;;;;;5031568;28;20123;-77
2021/03/04 11:42:06;;;;;;;81.43;41.75;;;12.40;73.40;;;;;;5007294;28;20037;-81
2021/03/04 11:44:32;;;;;;;89.75;42.30;;;12.60;74.40;;;;;;4983759;28;20117;-81
2021/03/04 11:46:58;;;;;;;82.35;40.75;;;12.70;73.00;;;;;;5006210;28;20113;-79
2021/03/04 11:49:24;;;;;;;86.57;41.42;;;12.80;73.90;;;;;;5030083;28;20636;-80
2021/03/04 11:51:49;;;;;;;83.90;39.28;;;12.80;72.20;;;;;;5029467;28;20554;-82
2021/03/04 11:54:15;;;;;;;91.88;41.78;;;12.80;72.00;;;;;;5049669;28;20029;-81
2021/03/04 11:56:41;;;;;;;89.65;41.45;;;12.90;73.00;;;;;;5047649;28;20041;-81
2021/03/04 11:59:11;;;;;;;89.63;40.90;;;13.00;71.80;;;;;;5043270;28;20475;-79
2021/03/04 12:01:38;;;;;;;85.47;39.90;;;13.00;71.10;;;;;;5027778;28;20030;-79
2021/03/04 12:04:04;;;;;;;90.32;41.35;;;13.00;71.30;;;;;;5011178;28;20387;-78
2021/03/04 12:06:30;;;;;;;86.75;41.30;;;13.10;72.60;;;;;;5027434;28;20116;-79
2021/03/04 12:08:56;;;;;;;91.13;41.88;;;13.20;71.60;;;;;;5029553;28;20045;-80
2021/03/04 12:11:21;;;;;;;78.93;41.05;;;13.10;70.50;;;;;;5026520;28;20078;-80
2021/03/04 12:13:47;;;;;;;86.55;41.38;;;13.20;71.30;;;;;;5012065;28;20059;-79
2021/03/04 12:16:13;;;;;;;90.30;41.28;;;13.30;70.90;;;;;;5026298;28;20112;-80
2021/03/04 12:18:39;;;;;;;77.75;39.42;;;13.20;69.60;;;;;;5028811;28;20395;-82
2021/03/04 12:21:05;;;;;;;88.82;41.25;;;13.30;72.10;;;;;;5026648;28;20032;-77
2021/03/04 12:23:32;;;;;;;82.22;40.97;;;13.40;70.80;;;;;;5028279;28;20040;-79
2021/03/04 12:25:59;;;;;;;82.70;39.85;;;13.50;71.40;;;;;;5026957;28;20036;-79
2021/03/04 12:28:24;;;;;;;85.80;41.15;;;13.50;70.70;;;;;;5011144;28;20042;-79
2021/03/04 12:30:51;;;;;;;84.53;40.85;;;13.50;69.70;;;;;;5024988;28;20023;-80
2021/03/04 12:33:16;;;;;;;85.70;41.38;;;13.60;71.00;;;;;;5028804;28;20080;-79
2021/03/04 12:35:42;;;;;;;81.22;38.55;;;13.70;71.80;;;;;;5026375;28;20496;-79